Time;durP1;ratioP1;P1;durP2;ratioP2;P2;SDS_P1;SDS_P2;PMS_P1;PMS_P2;Temp;Humidity;BMP_temperature;BMP_pressure;BME280_temperature;BME280_humidity;BME280_pressure;Samples;Min_cycle;Max_cycle;Signal;HPM_P1;HPM_P2
2022/07/07 00:01:18;;;;;;;6.90;5.20;;;;;;;19.12;68.85;101984.53;5252178;28;20094;-80
2022/07/07 00:03:50;;;;;;;5.40;4.47;;;;;;;18.85;70.14;101971.47;5246745;28;20052;-80
2022/07/07 00:06:22;;;;;;;8.17;5.63;;;;;;;19.03;69.32;101975.44;5262078;28;20021;-79
2022/07/07 00:08:54;;;;;;;8.37;4.63;;;;;;;19.08;68.70;101960.84;5252647;28;20036;-79
2022/07/07 00:11:26;;;;;;;10.83;5.27;;;;;;;19.07;68.56;101960.97;5250540;28;20119;-80
2022/07/07 00:13:58;;;;;;;8.90;5.90;;;;;;;18.83;69.62;101943.38;5270827;28;20175;-79
2022/07/07 00:16:29;;;;;;;8.40;5.40;;;;;;;18.94;68.77;101958.44;5261085;28;20036;-80
2022/07/07 00:19:01;;;;;;;9.43;5.50;;;;;;;18.80;70.04;101960.34;5252638;28;20043;-79
2022/07/07 00:21:32;;;;;;;9.97;4.90;;;;;;;18.98;69.34;101955.44;5242884;28;20033;-79
2022/07/07 00:24:04;;;;;;;13.07;5.27;;;;;;;18.98;69.17;101959.88;5270737;28;20471;-79
2022/07/07 00:26:35;;;;;;;6.47;5.17;;;;;;;18.94;68.72;101939.84;5261842;28;20051;-79
2022/07/07 00:29:07;;;;;;;9.03;4.83;;;;;;;18.96;68.92;101938.78;5264743;28;20059;-79
2022/07/07 00:31:38;;;;;;;10.37;5.30;;;;;;;18.82;69.28;101928.38;5263267;28;20086;-78
2022/07/07 00:34:10;;;;;;;8.53;4.97;;;;;;;18.88;69.01;101929.72;5252982;28;20029;-79
2022/07/07 00:36:43;;;;;;;7.03;4.40;;;;;;;18.97;68.86;101935.16;5241041;28;20024;-79
2022/07/07 00:39:14;;;;;;;6.40;4.00;;;;;;;18.82;69.54;101918.63;5271014;28;21163;-79
2022/07/07 00:41:45;;;;;;;7.23;5.00;;;;;;;18.91;69.11;101924.16;5250906;28;20040;-79
2022/07/07 00:44:17;;;;;;;8.87;4.93;;;;;;;18.84;70.09;101931.78;5253753;28;20028;-79
2022/07/07 00:46:51;;;;;;;7.97;3.73;;;;;;;18.95;69.49;101925.63;5255195;28;20112;-79
2022/07/07 00:49:22;;;;;;;7.97;4.68;;;;;;;18.98;69.19;101918.28;5270833;28;20563;-80
2022/07/07 00:51:54;;;;;;;7.03;4.20;;;;;;;18.82;69.21;101905.34;5270807;28;20078;-80
2022/07/07 00:54:25;;;;;;;5.20;3.50;;;;;;;18.84;69.76;101915.84;5252640;28;20037;-80
2022/07/07 00:56:57;;;;;;;6.93;4.33;;;;;;;18.86;69.95;101916.56;5269548;28;20040;-79
2022/07/07 00:59:28;;;;;;;7.10;4.30;;;;;;;18.83;70.10;101911.53;5272468;28;20032;-79
2022/07/07 01:02:01;;;;;;;6.83;4.03;;;;;;;18.72;70.81;101905.25;5252074;28;20028;-79
2022/07/07 01:04:34;;;;;;;9.47;4.10;;;;;;;18.70;71.09;101904.50;5271721;28;20032;-78
2022/07/07 01:07:05;;;;;;;8.27;3.90;;;;;;;18.66;71.07;101892.44;5271269;28;20449;-79
2022/07/07 01:09:37;;;;;;;8.17;4.30;;;;;;;18.82;70.70;101909.81;5271400;28;20032;-78
2022/07/07 01:12:08;;;;;;;5.53;3.40;;;;;;;18.83;70.59;101911.53;5270259;28;20032;-77
2022/07/07 01:14:40;;;;;;;6.63;3.53;;;;;;;18.72;71.11;101909.69;5271348;28;20048;-78
2022/07/07 01:17:11;;;;;;;5.60;3.10;;;;;;;18.76;71.42;101911.16;5269907;28;20060;-78
2022/07/07 01:19:43;;;;;;;5.10;3.50;;;;;;;18.78;71.16;101914.50;5269831;28;20036;-79
2022/07/07 01:22:16;;;;;;;7.43;4.10;;;;;;;18.69;71.32;101905.50;5270761;28;20059;-79
2022/07/07 01:24:47;;;;;;;8.82;4.03;;;;;;;18.61;71.71;101906.06;5271284;28;20036;-79
2022/07/07 01:27:20;;;;;;;6.03;3.77;;;;;;;18.71;71.95;101910.69;5252618;28;20040;-79
2022/07/07 01:29:56;;;;;;;6.90;3.70;;;;;;;18.66;71.79;101897.75;5270969;28;20032;-79
2022/07/07 01:32:28;;;;;;;8.60;3.80;;;;;;;18.73;72.06;101903.41;5270824;28;20031;-79
2022/07/07 01:34:59;;;;;;;7.33;3.67;;;;;;;18.72;71.80;101901.75;5270919;28;20025;-78
2022/07/07 01:37:33;;;;;;;7.37;4.07;;;;;;;18.77;72.01;101890.75;5237250;28;20021;-78
2022/07/07 01:40:05;;;;;;;11.10;4.07;;;;;;;18.57;72.66;101872.78;5254025;28;20029;-78
2022/07/07 01:42:36;;;;;;;5.53;3.50;;;;;;;18.67;72.36;101880.03;5272198;28;20039;-77
2022/07/07 01:45:08;;;;;;;5.33;3.43;;;;;;;18.61;73.07;101882.19;5257618;28;20115;-76
2022/07/07 01:47:39;;;;;;;6.03;3.70;;;;;;;18.73;72.38;101877.72;5256226;28;20024;-75
2022/07/07 01:50:11;;;;;;;9.20;3.97;;;;;;;18.63;72.56;101871.47;5279686;28;20036;-75
2022/07/07 01:52:42;;;;;;;9.50;4.10;;;;;;;18.61;72.62;101860.97;5270122;28;20024;-76
2022/07/07 01:55:14;;;;;;;7.03;3.33;;;;;;;18.59;73.27;101870.84;5270430;28;20295;-77
2022/07/07 01:57:45;;;;;;;6.17;4.20;;;;;;;18.61;73.19;101866.28;5272117;28;20048;-78
2022/07/07 02:00:16;;;;;;;6.07;3.87;;;;;;;18.65;72.96;101864.22;5258127;28;20044;-77
2022/07/07 02:02:48;;;;;;;5.27;3.63;;;;;;;18.64;73.81;101880.28;5266546;28;20091;-79
2022/07/07 02:05:19;;;;;;;5.53;3.40;;;;;;;18.71;73.39;101879.66;5263575;28;20221;-78
2022/07/07 02:07:50;;;;;;;8.93;4.20;;;;;;;18.67;74.16;101880.03;5271546;28;20517;-77
2022/07/07 02:13:12;;;;;;;7.00;3.90;;;;;;;18.52;74.76;101864.34;5271001;28;20032;-77
2022/07/07 02:15:43;;;;;;;7.00;4.03;;;;;;;18.60;74.92;101875.22;5270193;28;20554;-78
2022/07/07 02:18:14;;;;;;;9.30;3.90;;;;;;;18.59;74.73;101864.69;5271505;28;20024;-78
2022/07/07 02:20:46;;;;;;;6.70;3.53;;;;;;;18.65;74.87;101869.53;5270018;28;20408;-77
2022/07/07 02:23:17;;;;;;;7.33;4.03;;;;;;;18.59;74.86;101862.03;5272046;28;20036;-78
2022/07/07 02:25:48;;;;;;;8.63;4.03;;;;;;;18.53;75.46;101851.94;5268678;28;20032;-78
2022/07/07 02:28:23;;;;;;;7.73;3.43;;;;;;;18.55;75.51;101856.16;5270723;28;20207;-77
2022/07/07 02:30:54;;;;;;;7.57;3.00;;;;;;;18.64;74.85;101862.53;5268661;28;20058;-79
2022/07/07 02:33:26;;;;;;;7.07;2.80;;;;;;;18.46;76.22;101854.22;5269845;28;20021;-77
2022/07/07 02:35:58;;;;;;;7.37;3.73;;;;;;;18.48;76.33;101852.28;5269692;28;20035;-78
2022/07/07 02:38:30;;;;;;;5.87;3.10;;;;;;;18.58;76.12;101863.88;5270626;28;20024;-79
2022/07/07 02:41:02;;;;;;;7.50;4.03;;;;;;;18.54;76.27;101849.16;5264220;28;20480;-79
2022/07/07 02:43:34;;;;;;;8.60;3.87;;;;;;;18.54;76.62;101861.56;5249361;28;20076;-78
2022/07/07 02:46:05;;;;;;;6.23;3.37;;;;;;;18.52;76.75;101852.91;5258338;28;20032;-80
2022/07/07 02:48:37;;;;;;;8.60;3.17;;;;;;;18.29;76.88;101818.41;5270458;28;20032;-80
2022/07/07 02:51:09;;;;;;;6.47;3.20;;;;;;;18.52;76.98;101856.38;5234704;28;20028;-80
2022/07/07 02:53:40;;;;;;;6.17;2.90;;;;;;;18.56;76.64;101851.69;5268599;28;20025;-80
2022/07/07 02:56:11;;;;;;;5.73;2.83;;;;;;;18.50;76.70;101837.94;5266904;28;20051;-80
2022/07/07 02:58:42;;;;;;;4.83;2.47;;;;;;;18.58;76.25;101852.41;5269005;28;20031;-80
2022/07/07 03:01:14;;;;;;;7.33;2.90;;;;;;;18.57;76.42;101862.16;5268725;28;20559;-79
2022/07/07 03:03:45;;;;;;;9.73;2.73;;;;;;;18.54;76.75;101854.44;5268935;28;20047;-80
2022/07/07 03:06:16;;;;;;;8.40;3.30;;;;;;;18.50;77.09;101848.53;5268319;28;20284;-80
2022/07/07 03:08:47;;;;;;;4.13;2.70;;;;;;;18.62;76.90;101861.81;5269977;28;20029;-80
2022/07/07 03:11:19;;;;;;;5.60;2.97;;;;;;;18.60;77.08;101864.59;5249250;28;20088;-81
2022/07/07 03:13:50;;;;;;;7.00;2.93;;;;;;;18.45;81.77;101852.53;5269544;28;20033;-81
2022/07/07 03:16:21;;;;;;;5.30;3.07;;;;;;;18.40;84.46;101860.00;5268051;28;20056;-81
2022/07/07 03:18:53;;;;;;;10.43;3.53;;;;;;;18.42;89.41;101866.00;5269401;28;20032;-81
2022/07/07 03:21:24;;;;;;;9.77;3.13;;;;;;;18.46;89.72;101878.09;5251876;28;20021;-80
2022/07/07 03:23:55;;;;;;;5.40;2.47;;;;;;;18.49;88.96;101872.53;5248199;28;20072;-81
2022/07/07 03:26:26;;;;;;;3.93;2.13;;;;;;;18.36;87.13;101854.09;5253551;28;20690;-78
2022/07/07 03:28:58;;;;;;;5.53;2.13;;;;;;;18.45;86.87;101868.44;5250451;28;20029;-78
2022/07/07 03:31:29;;;;;;;2.90;1.43;;;;;;;18.38;85.60;101873.34;5268663;28;20043;-78
2022/07/07 03:34:00;;;;;;;2.60;1.40;;;;;;;18.16;89.06;101861.75;5267883;28;20143;-78
2022/07/07 03:36:32;;;;;;;3.07;1.90;;;;;;;18.09;89.72;101876.41;5250496;28;20028;-78
2022/07/07 03:39:03;;;;;;;5.43;1.43;;;;;;;18.05;90.88;101878.44;5269029;28;20368;-78
2022/07/07 03:41:34;;;;;;;4.63;1.37;;;;;;;18.04;92.05;101886.50;5266690;28;20442;-79
2022/07/07 03:44:05;;;;;;;2.43;1.47;;;;;;;17.92;92.14;101865.28;5268051;28;20712;-79
2022/07/07 03:46:37;;;;;;;3.27;1.50;;;;;;;17.95;92.21;101880.94;5267803;28;20029;-79
2022/07/07 03:49:08;;;;;;;4.33;1.57;;;;;;;17.90;97.65;101883.97;5269580;28;20054;-79
2022/07/07 03:51:39;;;;;;;3.17;1.60;;;;;;;17.83;96.01;101874.78;5268842;28;20086;-79
2022/07/07 03:54:11;;;;;;;4.03;2.20;;;;;;;17.66;100.00;101876.84;5266758;28;20031;-79
2022/07/07 03:56:42;;;;;;;4.00;2.20;;;;;;;17.75;100.00;101882.47;5249668;28;20322;-79
2022/07/07 03:59:13;;;;;;;2.63;1.70;;;;;;;17.71;100.00;101873.03;5268646;28;20621;-79
2022/07/07 04:01:45;;;;;;;2.87;1.93;;;;;;;17.71;100.00;101870.38;5267344;28;20028;-79
2022/07/07 04:04:17;;;;;;;3.40;2.03;;;;;;;17.52;100.00;101858.50;5268017;28;20052;-79
2022/07/07 04:06:48;;;;;;;4.27;2.43;;;;;;;17.48;100.00;101865.84;5267383;28;20510;-79
2022/07/07 04:09:19;;;;;;;3.70;2.17;;;;;;;17.68;100.00;101870.63;5268800;28;20063;-79
2022/07/07 04:11:50;;;;;;;4.30;1.83;;;;;;;17.60;100.00;101866.72;5265237;28;20024;-79
2022/07/07 04:14:22;;;;;;;5.20;2.70;;;;;;;17.48;100.00;101851.75;5267604;28;20051;-79
2022/07/07 04:16:53;;;;;;;4.90;1.87;;;;;;;17.44;100.00;101850.28;5272483;28;20033;-79
2022/07/07 04:19:24;;;;;;;5.37;2.60;;;;;;;17.48;100.00;101838.50;5271227;28;20032;-79
2022/07/07 04:21:56;;;;;;;2.83;2.27;;;;;;;17.59;100.00;101851.81;5267857;28;20095;-79
2022/07/07 04:24:27;;;;;;;2.77;2.30;;;;;;;17.61;100.00;101855.16;5248202;28;20064;-79
2022/07/07 04:26:58;;;;;;;4.80;2.50;;;;;;;17.69;100.00;101849.31;5253455;28;20032;-79
2022/07/07 04:29:29;;;;;;;4.83;2.67;;;;;;;17.61;100.00;101849.88;5250159;28;20044;-79
2022/07/07 04:32:01;;;;;;;4.87;2.37;;;;;;;17.51;100.00;101841.75;5268324;28;20032;-79
2022/07/07 04:34:32;;;;;;;3.80;2.60;;;;;;;17.51;100.00;101846.22;5269077;28;20032;-79
2022/07/07 04:37:04;;;;;;;5.73;3.00;;;;;;;17.42;100.00;101853.88;5267809;28;20040;-79
2022/07/07 04:39:35;;;;;;;6.73;2.10;;;;;;;17.38;100.00;101851.56;5266817;28;20036;-78
2022/07/07 04:42:06;;;;;;;4.27;2.53;;;;;;;17.33;100.00;101865.13;5267458;28;20051;-79
2022/07/07 04:44:38;;;;;;;6.20;2.60;;;;;;;17.38;100.00;101875.41;5266636;28;20023;-79
2022/07/07 04:47:09;;;;;;;3.90;2.53;;;;;;;17.37;100.00;101881.63;5248421;28;20670;-79
2022/07/07 04:49:40;;;;;;;4.93;2.37;;;;;;;17.37;100.00;101885.16;5268160;28;20510;-79
2022/07/07 04:52:11;;;;;;;6.00;2.53;;;;;;;17.46;100.00;101886.28;5248686;28;20411;-79
2022/07/07 04:54:43;;;;;;;3.00;2.23;;;;;;;17.49;100.00;101887.88;5249058;28;20138;-80
2022/07/07 04:57:14;;;;;;;4.87;2.17;;;;;;;17.24;100.00;101887.84;5270843;28;20055;-80
2022/07/07 04:59:45;;;;;;;4.10;1.80;;;;;;;17.48;100.00;101894.09;5273467;28;20057;-80
2022/07/07 05:02:16;;;;;;;2.10;1.17;;;;;;;17.41;100.00;101891.91;5270109;28;20036;-79
2022/07/07 05:04:49;;;;;;;2.13;1.40;;;;;;;17.48;100.00;101887.03;5269927;28;20041;-80
2022/07/07 05:07:20;;;;;;;3.20;1.70;;;;;;;17.48;100.00;101888.81;5271332;28;20032;-78
2022/07/07 05:09:51;;;;;;;4.63;1.30;;;;;;;17.38;100.00;101886.00;5269317;28;21046;-79
2022/07/07 05:12:22;;;;;;;2.97;0.83;;;;;;;17.45;100.00;101902.28;5271584;28;20032;-79
2022/07/07 05:14:54;;;;;;;4.33;1.30;;;;;;;17.30;100.00;101902.41;5272312;28;20160;-81
2022/07/07 05:17:25;;;;;;;4.30;1.00;;;;;;;17.14;100.00;101892.94;5271292;28;20028;-79
2022/07/07 05:19:56;;;;;;;4.13;1.23;;;;;;;17.48;100.00;101917.94;5271790;28;20029;-80
2022/07/07 05:22:27;;;;;;;4.27;0.97;;;;;;;17.32;100.00;101916.41;5233264;28;20060;-80
2022/07/07 05:24:59;;;;;;;3.83;1.40;;;;;;;17.29;100.00;101927.22;5262909;28;20029;-80
2022/07/07 05:27:31;;;;;;;4.27;1.10;;;;;;;17.37;100.00;101924.84;5262034;28;20064;-80
2022/07/07 05:30:03;;;;;;;2.73;1.40;;;;;;;17.47;100.00;101909.16;5245374;28;20025;-80
2022/07/07 05:32:34;;;;;;;1.93;0.87;;;;;;;17.42;100.00;101930.66;5270663;28;20545;-80
2022/07/07 05:35:06;;;;;;;5.70;1.87;;;;;;;17.35;100.00;101921.47;5270860;28;20067;-79
2022/07/07 05:37:37;;;;;;;5.67;1.27;;;;;;;17.47;100.00;101919.72;5270000;28;20040;-78
2022/07/07 05:40:09;;;;;;;6.93;1.43;;;;;;;17.56;100.00;101934.13;5268179;28;20032;-78
2022/07/07 05:42:41;;;;;;;6.93;1.70;;;;;;;17.68;100.00;101936.84;5271322;28;20051;-78
2022/07/07 05:45:13;;;;;;;5.70;1.43;;;;;;;17.58;100.00;101937.50;5252273;28;20055;-78
2022/07/07 05:47:45;;;;;;;5.87;1.50;;;;;;;17.39;100.00;101917.66;5270560;28;20824;-78
2022/07/07 05:50:16;;;;;;;5.93;1.30;;;;;;;17.45;100.00;101915.53;5270184;28;20101;-79
2022/07/07 05:52:48;;;;;;;4.77;1.43;;;;;;;17.85;100.00;101949.69;5267457;28;20421;-78
2022/07/07 05:55:19;;;;;;;4.93;1.27;;;;;;;17.83;100.00;101951.63;5269365;28;20056;-78
2022/07/07 05:57:50;;;;;;;7.03;1.73;;;;;;;17.92;100.00;101954.53;5270708;28;20519;-78
2022/07/07 06:00:23;;;;;;;5.70;1.13;;;;;;;17.89;100.00;101951.16;5269012;28;20033;-78
2022/07/07 06:02:55;;;;;;;6.47;1.17;;;;;;;17.89;100.00;101960.94;5252042;28;20033;-78
2022/07/07 06:05:26;;;;;;;6.63;2.27;;;;;;;17.81;100.00;101958.81;5263885;28;20020;-78
2022/07/07 06:07:57;;;;;;;5.33;1.47;;;;;;;17.75;100.00;101980.47;5269606;28;20514;-80
2022/07/07 06:10:29;;;;;;;7.77;1.40;;;;;;;17.92;100.00;101973.09;5268334;28;20032;-79
2022/07/07 06:13:00;;;;;;;4.43;1.33;;;;;;;17.84;100.00;101987.75;5244756;28;20028;-79
2022/07/07 06:15:35;;;;;;;4.07;1.20;;;;;;;17.70;100.00;101988.75;5251629;28;20041;-79
2022/07/07 06:18:06;;;;;;;7.03;1.40;;;;;;;17.95;100.00;101997.56;5264908;28;20056;-80
2022/07/07 06:20:37;;;;;;;6.03;1.30;;;;;;;17.83;100.00;102001.97;5267006;28;20112;-80
2022/07/07 06:23:09;;;;;;;8.80;2.93;;;;;;;17.89;100.00;102004.16;5269114;28;20032;-80
2022/07/07 06:25:42;;;;;;;9.10;1.70;;;;;;;17.99;100.00;102006.13;5266956;28;20028;-80
2022/07/07 06:28:13;;;;;;;7.47;1.57;;;;;;;18.03;100.00;102012.88;5269753;28;20136;-80
2022/07/07 06:30:45;;;;;;;9.50;2.30;;;;;;;18.06;100.00;102015.34;5269794;28;20119;-80
2022/07/07 06:33:16;;;;;;;9.30;2.17;;;;;;;18.02;98.33;102003.25;5269403;28;20028;-80
2022/07/07 06:35:47;;;;;;;7.60;1.80;;;;;;;17.88;100.00;102026.31;5270383;28;20033;-81
2022/07/07 06:38:18;;;;;;;12.40;4.17;;;;;;;18.02;100.00;102020.00;5244142;28;20055;-80
2022/07/07 06:40:50;;;;;;;9.73;2.27;;;;;;;18.14;100.00;102014.78;5269025;28;20044;-78
2022/07/07 06:43:21;;;;;;;10.33;2.90;;;;;;;18.27;98.14;102033.31;5270131;28;20133;-79
2022/07/07 06:45:52;;;;;;;11.80;2.67;;;;;;;18.40;99.93;102035.03;5269839;28;20021;-79
2022/07/07 06:48:23;;;;;;;10.17;1.63;;;;;;;18.54;93.36;102037.50;5268370;28;20035;-79
2022/07/07 06:50:55;;;;;;;13.17;2.30;;;;;;;18.32;98.79;102048.84;5251751;28;20024;-80
2022/07/07 06:53:26;;;;;;;9.20;1.97;;;;;;;18.54;90.46;102040.13;5263896;28;20024;-76
2022/07/07 06:55:57;;;;;;;13.33;2.97;;;;;;;18.49;92.31;102060.84;5254347;28;20036;-71
2022/07/07 06:58:29;;;;;;;8.57;1.87;;;;;;;18.05;93.21;102056.03;5232437;28;20678;-72
2022/07/07 07:01:00;;;;;;;5.73;1.70;;;;;;;18.07;94.71;102047.97;5257448;28;20052;-72
2022/07/07 07:03:31;;;;;;;6.53;1.10;;;;;;;17.90;98.70;102053.56;5245671;28;20025;-77
2022/07/07 07:06:02;;;;;;;8.80;2.50;;;;;;;18.19;95.35;102064.81;5249086;28;20031;-77
2022/07/07 07:08:34;;;;;;;6.53;1.90;;;;;;;18.42;94.33;102041.91;5239572;28;20143;-78
2022/07/07 07:11:05;;;;;;;11.57;2.87;;;;;;;18.77;93.53;102034.91;5245843;28;20388;-74
2022/07/07 07:13:36;;;;;;;6.80;1.70;;;;;;;19.05;90.05;102054.03;5247119;28;20060;-75
2022/07/07 07:16:08;;;;;;;9.00;1.97;;;;;;;19.31;85.31;102052.97;5249705;28;20116;-75
2022/07/07 07:18:39;;;;;;;6.43;1.40;;;;;;;19.79;81.87;102062.47;5244293;28;20756;-80
2022/07/07 07:21:11;;;;;;;7.53;1.63;;;;;;;20.11;77.93;102060.88;5243560;28;20060;-79
2022/07/07 07:23:42;;;;;;;6.67;1.47;;;;;;;20.05;79.22;102064.91;5252172;28;20055;-81
2022/07/07 07:26:14;;;;;;;7.83;1.70;;;;;;;20.49;80.17;102064.00;5247460;28;20574;-76
2022/07/07 07:28:45;;;;;;;10.13;2.20;;;;;;;20.88;76.73;102067.91;5246339;28;20040;-72
2022/07/07 07:31:17;;;;;;;5.57;1.47;;;;;;;20.96;75.63;102065.50;5242557;28;20509;-74
2022/07/07 07:33:48;;;;;;;5.23;1.40;;;;;;;21.14;75.92;102076.38;5244791;28;20059;-73
2022/07/07 07:36:20;;;;;;;8.10;1.77;;;;;;;21.37;72.36;102080.66;5241964;28;20129;-70
2022/07/07 07:38:51;;;;;;;5.00;1.52;;;;;;;21.03;72.89;102066.63;5252339;28;20039;-71
2022/07/07 07:41:23;;;;;;;8.05;1.30;;;;;;;21.27;68.74;102078.81;5260983;28;20040;-71
2022/07/07 07:43:54;;;;;;;6.18;1.70;;;;;;;21.13;67.92;102081.81;5251889;28;20036;-72
2022/07/07 07:46:25;;;;;;;7.90;1.90;;;;;;;20.71;71.69;102094.16;5249454;28;20060;-73
2022/07/07 07:48:58;;;;;;;9.18;1.90;;;;;;;20.80;68.91;102093.34;5248518;28;20048;-73
2022/07/07 07:51:29;;;;;;;6.57;2.03;;;;;;;20.69;70.11;102101.41;5269066;28;20379;-74
2022/07/07 07:54:00;;;;;;;8.53;2.30;;;;;;;20.47;72.27;102110.34;5266794;28;20033;-73
2022/07/07 07:56:32;;;;;;;8.52;1.80;;;;;;;20.23;77.25;102092.78;5269349;28;20033;-73
2022/07/07 07:59:03;;;;;;;6.47;1.77;;;;;;;19.61;80.28;102085.22;5250535;28;20043;-73
2022/07/07 08:01:34;;;;;;;6.87;2.00;;;;;;;19.68;85.23;102120.97;5266905;28;20032;-73
2022/07/07 08:04:06;;;;;;;18.60;1.90;;;;;;;19.66;84.60;102138.84;5267829;28;20570;-73
2022/07/07 08:06:37;;;;;;;5.87;1.93;;;;;;;19.24;85.72;102126.97;5267923;28;20037;-73
2022/07/07 08:09:08;;;;;;;5.50;1.37;;;;;;;19.32;91.33;102119.25;5267623;28;20078;-74
2022/07/07 08:11:39;;;;;;;6.63;1.90;;;;;;;19.19;90.50;102113.19;5268618;28;20032;-73
2022/07/07 08:14:11;;;;;;;4.67;1.37;;;;;;;19.24;90.79;102105.72;5268268;28;20047;-73
2022/07/07 08:16:42;;;;;;;7.87;1.10;;;;;;;19.73;98.59;102118.78;5268708;28;20074;-74
2022/07/07 08:19:17;;;;;;;3.80;1.40;;;;;;;20.28;86.62;102128.66;5268047;28;20037;-73
2022/07/07 08:21:48;;;;;;;4.30;1.40;;;;;;;20.35;78.48;102128.97;5267312;28;20043;-73
2022/07/07 08:24:20;;;;;;;4.40;1.37;;;;;;;20.46;80.41;102122.78;5266440;28;20017;-74
2022/07/07 08:26:52;;;;;;;3.40;1.20;;;;;;;20.60;81.51;102142.09;5268441;28;20035;-73
2022/07/07 08:29:23;;;;;;;7.30;1.80;;;;;;;20.53;78.58;102133.78;5267716;28;20033;-72
2022/07/07 08:31:54;;;;;;;6.20;1.67;;;;;;;20.37;77.75;102134.22;5262612;28;20391;-73
2022/07/07 08:34:26;;;;;;;6.03;1.45;;;;;;;20.19;85.49;102140.06;5270665;28;20036;-73
2022/07/07 08:36:57;;;;;;;7.83;2.17;;;;;;;20.14;81.79;102134.25;5270505;28;20025;-73
2022/07/07 08:39:28;;;;;;;5.68;2.05;;;;;;;20.06;84.87;102141.03;5269977;28;20091;-73
2022/07/07 08:42:00;;;;;;;5.30;1.53;;;;;;;19.85;87.11;102140.91;5270383;28;20107;-72
2022/07/07 08:44:32;;;;;;;4.47;1.40;;;;;;;19.85;83.02;102145.34;5270624;28;20111;-72
2022/07/07 08:47:03;;;;;;;5.83;1.30;;;;;;;19.51;88.13;102152.38;5272089;28;20081;-73
2022/07/07 08:49:35;;;;;;;5.07;1.07;;;;;;;19.30;91.51;102130.97;5271356;28;20036;-73
2022/07/07 08:52:06;;;;;;;4.10;1.20;;;;;;;21.06;86.39;102150.75;5271596;28;20507;-73
2022/07/07 08:54:39;;;;;;;4.78;1.27;;;;;;;22.05;80.17;102150.38;5270101;28;20051;-73
2022/07/07 08:57:11;;;;;;;6.50;1.50;;;;;;;21.99;75.28;102141.94;5272270;28;20035;-73
2022/07/07 08:59:42;;;;;;;7.65;2.33;;;;;;;21.93;78.82;102142.50;5270622;28;20028;-73
2022/07/07 09:02:13;;;;;;;8.55;2.42;;;;;;;21.78;70.11;102146.50;5266579;28;20033;-73
2022/07/07 09:04:45;;;;;;;6.82;2.05;;;;;;;21.27;71.92;102150.75;5250405;28;20023;-73
2022/07/07 09:07:17;;;;;;;5.20;1.67;;;;;;;21.37;72.17;102168.59;5250120;28;20112;-73
2022/07/07 09:09:52;;;;;;;11.52;1.60;;;;;;;21.14;73.30;102179.38;5249767;28;20087;-73
2022/07/07 09:12:24;;;;;;;6.63;1.50;;;;;;;20.70;79.29;102169.63;5250608;28;20590;-73
2022/07/07 09:14:55;;;;;;;7.25;1.50;;;;;;;20.55;78.50;102169.94;5252754;28;20124;-72
2022/07/07 09:17:29;;;;;;;6.38;1.35;;;;;;;20.68;78.77;102168.94;5250644;28;20502;-73
2022/07/07 09:20:06;;;;;;;6.15;1.70;;;;;;;20.84;80.97;102176.47;5249541;28;20029;-73
2022/07/07 09:22:44;;;;;;;7.45;1.52;;;;;;;20.94;78.99;102176.59;5251055;28;20025;-72
2022/07/07 09:25:18;;;;;;;9.73;1.75;;;;;;;20.62;80.53;102185.41;5247763;28;20036;-73
2022/07/07 09:27:55;;;;;;;4.60;1.33;;;;;;;20.83;75.89;102181.94;5232401;28;20716;-73
2022/07/07 09:30:35;;;;;;;10.02;1.83;;;;;;;21.65;74.03;102182.22;5249778;28;20033;-73
2022/07/07 09:33:07;;;;;;;6.50;1.85;;;;;;;21.40;70.51;102193.16;5250025;28;20025;-73
2022/07/07 09:38:32;;;;;;;3.60;0.88;;;;;;;21.26;71.80;102193.50;5249517;28;20041;-73
2022/07/07 09:41:08;;;;;;;6.07;1.60;;;;;;;20.93;74.03;102177.53;5248135;28;20079;-73
2022/07/07 09:43:53;;;;;;;6.20;1.42;;;;;;;21.23;74.16;102205.25;5249465;28;20056;-73
2022/07/07 09:46:26;;;;;;;3.45;1.08;;;;;;;21.44;71.51;102204.41;5249545;28;20056;-72
2022/07/07 09:48:59;;;;;;;6.65;1.63;;;;;;;21.03;71.00;102207.78;5250680;28;20029;-73
2022/07/07 09:51:34;;;;;;;4.28;1.30;;;;;;;21.19;71.55;102216.31;5249568;28;20782;-73
2022/07/07 09:54:08;;;;;;;3.28;1.25;;;;;;;20.99;72.71;102214.34;5248949;28;20033;-73
2022/07/07 09:56:41;;;;;;;4.67;1.13;;;;;;;20.72;73.23;102239.56;5247918;28;20025;-73
2022/07/07 09:59:15;;;;;;;3.05;1.08;;;;;;;20.74;73.20;102239.44;5249345;28;20287;-73
2022/07/07 10:01:47;;;;;;;4.47;1.60;;;;;;;20.31;78.04;102242.81;5249968;28;20356;-73
2022/07/07 10:04:22;;;;;;;5.65;1.23;;;;;;;20.07;81.90;102243.75;5249583;28;20029;-73
2022/07/07 10:06:54;;;;;;;6.80;1.13;;;;;;;20.17;80.78;102251.88;5249570;28;20017;-73
2022/07/07 10:09:26;;;;;;;4.00;1.20;;;;;;;19.68;89.72;102245.88;5248539;28;20025;-73
2022/07/07 10:11:58;;;;;;;5.43;1.20;;;;;;;19.91;86.18;102246.78;5247640;28;20017;-73
2022/07/07 10:14:34;;;;;;;3.13;0.87;;;;;;;20.23;86.20;102247.88;5247173;28;20045;-73
2022/07/07 10:17:06;;;;;;;3.83;1.00;;;;;;;20.66;81.81;102253.38;5249481;28;20664;-73
2022/07/07 10:19:38;;;;;;;5.30;1.53;;;;;;;20.51;79.67;102255.47;5248932;28;20040;-73
2022/07/07 10:22:12;;;;;;;4.23;0.80;;;;;;;20.14;84.32;102257.41;5249486;28;20028;-73
2022/07/07 10:24:44;;;;;;;6.75;1.65;;;;;;;20.35;78.67;102255.84;5248435;28;20020;-73
2022/07/07 10:27:21;;;;;;;4.43;1.40;;;;;;;20.19;81.58;102260.56;5267698;28;20021;-73
2022/07/07 10:29:53;;;;;;;6.33;1.03;;;;;;;20.17;78.99;102273.16;5270622;28;20033;-73
2022/07/07 10:32:33;;;;;;;5.60;1.87;;;;;;;20.36;78.94;102273.50;5269237;28;20056;-74
2022/07/07 10:35:13;;;;;;;7.63;1.20;;;;;;;20.21;79.24;102279.09;5251902;28;20052;-74
2022/07/07 10:37:49;;;;;;;4.67;1.40;;;;;;;20.07;77.55;102282.81;5266028;28;20330;-73
2022/07/07 10:40:28;;;;;;;6.03;1.17;;;;;;;20.39;77.44;102276.75;5268707;28;20166;-76
2022/07/07 10:43:18;;;;;;;4.07;1.07;;;;;;;20.49;81.84;102286.69;5268729;28;20116;-73
2022/07/07 10:45:53;;;;;;;4.72;1.25;;;;;;;20.64;77.85;102282.78;5268730;28;20032;-74
2022/07/07 10:48:45;;;;;;;5.40;1.13;;;;;;;21.03;76.13;102284.19;5268634;28;20020;-73
2022/07/07 10:51:25;;;;;;;4.60;0.90;;;;;;;21.09;73.76;102285.47;5267962;28;20024;-74
2022/07/07 10:54:06;;;;;;;4.80;1.15;;;;;;;20.64;74.06;102295.25;5249655;28;20032;-73
2022/07/07 10:56:53;;;;;;;3.47;0.98;;;;;;;20.78;79.12;102302.97;5250509;28;20577;-74
2022/07/07 10:59:24;;;;;;;8.98;1.02;;;;;;;20.53;80.98;102302.28;5269010;28;20390;-73
2022/07/07 11:02:02;;;;;;;5.55;1.63;;;;;;;20.58;81.98;102317.88;5267186;28;20023;-74
2022/07/07 11:04:42;;;;;;;3.27;1.07;;;;;;;20.21;85.43;102313.66;5268506;28;20066;-73
2022/07/07 11:07:20;;;;;;;3.97;0.93;;;;;;;20.02;87.34;102323.00;5270629;28;20029;-72
2022/07/07 11:09:59;;;;;;;4.30;1.13;;;;;;;20.01;87.28;102318.69;5267399;28;20483;-72
2022/07/07 11:12:47;;;;;;;2.47;1.17;;;;;;;20.22;88.43;102328.66;5254820;28;20384;-71
2022/07/07 11:15:21;;;;;;;6.17;1.80;;;;;;;20.47;80.91;102324.06;5266086;28;20045;-72
2022/07/07 11:17:53;;;;;;;5.25;1.30;;;;;;;20.59;83.67;102329.38;5267952;28;20410;-82
2022/07/07 11:20:27;;;;;;;7.20;1.40;;;;;;;20.71;79.57;102331.06;5267526;28;20072;-77
2022/07/07 11:23:14;;;;;;;5.90;1.80;;;;;;;20.79;80.18;102328.63;5267510;28;20043;-77
2022/07/07 11:25:46;;;;;;;6.63;1.58;;;;;;;20.92;74.96;102335.63;5268106;28;20387;-81
2022/07/07 11:28:18;;;;;;;4.22;1.48;;;;;;;20.35;80.28;102330.34;5267948;28;20025;-80
2022/07/07 11:30:49;;;;;;;7.45;1.80;;;;;;;20.28;85.18;102344.13;5244592;28;20102;-82
2022/07/07 11:33:20;;;;;;;4.83;1.80;;;;;;;20.36;86.32;102350.66;5266214;28;20375;-80
2022/07/07 11:35:52;;;;;;;5.27;1.33;;;;;;;20.31;88.58;102348.38;5248706;28;20047;-81
2022/07/07 11:38:28;;;;;;;5.03;1.52;;;;;;;20.25;86.43;102355.00;5231123;28;20036;-81
2022/07/07 11:40:59;;;;;;;7.90;1.73;;;;;;;20.31;83.50;102356.34;5263550;28;20028;-81
2022/07/07 11:43:31;;;;;;;8.13;2.17;;;;;;;20.45;80.75;102357.94;5267978;28;20024;-72
2022/07/07 11:46:03;;;;;;;7.00;1.70;;;;;;;20.34;81.26;102358.75;5267328;28;20064;-74
2022/07/07 11:48:39;;;;;;;5.27;1.60;;;;;;;20.27;84.08;102362.84;5246743;28;20029;-73
2022/07/07 11:51:13;;;;;;;6.20;2.57;;;;;;;20.30;83.51;102362.59;5269993;28;20099;-71